Time;durP1;ratioP1;P1;durP2;ratioP2;P2;SDS_P1;SDS_P2;PMS_P1;PMS_P2;Temp;Humidity;BMP_temperature;BMP_pressure;BME280_temperature;BME280_humidity;BME280_pressure;Samples;Min_cycle;Max_cycle;Signal;HPM_P1;HPM_P2
2023/03/04 00:01:13;;;;;;;9.38;8.32;;;;;;;-0.25;100.00;98930.50;15296775;19;20018;-47
2023/03/04 00:06:44;;;;;;;10.48;8.63;;;;;;;-0.23;100.00;98931.28;15293427;19;20014;-47
2023/03/04 00:12:11;;;;;;;9.98;8.63;;;;;;;-0.23;100.00;98916.22;15288990;19;20042;-45
2023/03/04 00:17:36;;;;;;;9.23;8.30;;;;;;;-0.19;100.00;98914.31;15298164;19;20488;-45
2023/03/04 00:23:01;;;;;;;10.43;8.43;;;;;;;-0.11;100.00;98909.44;15290669;19;20602;-46
2023/03/04 00:28:28;;;;;;;10.35;8.63;;;;;;;-0.10;100.00;98905.84;15295522;19;20366;-47
2023/03/04 00:33:53;;;;;;;11.77;9.15;;;;;;;-0.16;100.00;98901.75;15290762;19;20039;-46
2023/03/04 00:39:17;;;;;;;12.20;9.88;;;;;;;-0.17;100.00;98897.38;15293231;19;20035;-46
2023/03/04 00:44:44;;;;;;;11.00;9.13;;;;;;;-0.17;100.00;98883.28;15285904;19;20094;-45
2023/03/04 00:50:10;;;;;;;10.52;9.10;;;;;;;-0.09;100.00;98880.22;15301381;19;20002;-44
2023/03/04 00:55:35;;;;;;;11.25;8.88;;;;;;;-0.09;100.00;98874.91;15294634;19;20042;-46
2023/03/04 01:01:02;;;;;;;12.98;9.85;;;;;;;-0.04;100.00;98870.25;15292818;19;20014;-46
2023/03/04 01:06:33;;;;;;;13.38;9.27;;;;;;;-0.06;100.00;98854.41;15287462;19;20022;-45
2023/03/04 01:11:58;;;;;;;12.15;8.90;;;;;;;0.02;100.00;98850.50;15291209;19;20007;-48
2023/03/04 01:17:25;;;;;;;12.20;9.32;;;;;;;0.15;100.00;98840.94;15288024;19;20014;-46
2023/03/04 01:22:50;;;;;;;12.65;9.02;;;;;;;0.19;100.00;98831.88;15287896;19;20482;-45
2023/03/04 01:28:08;;;;;;;11.38;8.93;;;;;;;0.21;100.00;98814.09;15291913;19;20021;-45
2023/03/04 01:33:35;;;;;;;12.48;10.07;;;;;;;0.26;100.00;98817.34;15286993;19;20018;-45
2023/03/04 01:39:00;;;;;;;11.38;9.50;;;;;;;0.26;100.00;98813.84;15291391;19;20066;-45
2023/03/04 01:44:24;;;;;;;11.52;9.52;;;;;;;0.27;100.00;98792.56;15285218;19;20025;-45
2023/03/04 01:49:56;;;;;;;10.60;9.05;;;;;;;0.24;100.00;98800.69;15285302;19;20022;-45
2023/03/04 01:55:25;;;;;;;12.38;9.35;;;;;;;0.33;100.00;98779.88;15284877;19;20039;-45
2023/03/04 02:00:51;;;;;;;10.95;8.63;;;;;;;0.34;100.00;98765.69;15287844;19;20025;-47
2023/03/04 02:06:25;;;;;;;10.52;8.80;;;;;;;0.37;100.00;98761.06;15287041;19;20022;-49
2023/03/04 02:11:51;;;;;;;10.02;8.05;;;;;;;0.39;100.00;98769.78;15286143;19;21973;-50
2023/03/04 02:17:19;;;;;;;12.40;9.02;;;;;;;0.40;100.00;98766.19;15300877;19;20016;-46
2023/03/04 02:22:55;;;;;;;10.63;8.45;;;;;;;0.37;100.00;98770.84;15292693;19;20390;-45
2023/03/04 02:28:22;;;;;;;12.23;9.30;;;;;;;0.39;100.00;98755.69;15302701;19;20014;-48
2023/03/04 02:33:47;;;;;;;11.23;9.20;;;;;;;0.38;100.00;98743.38;15295348;19;20496;-45
2023/03/04 02:39:15;;;;;;;10.82;8.77;;;;;;;0.36;100.00;98743.47;15304111;19;20024;-45
2023/03/04 02:44:47;;;;;;;10.82;8.85;;;;;;;0.38;100.00;98751.34;15293247;19;20349;-45
2023/03/04 02:50:13;;;;;;;10.70;9.07;;;;;;;0.35;100.00;98746.22;15293610;19;20512;-46
2023/03/04 02:55:38;;;;;;;11.80;8.43;;;;;;;0.39;100.00;98737.16;15294714;19;20507;-46
2023/03/04 03:01:08;;;;;;;11.05;8.43;;;;;;;0.42;100.00;98743.13;15297214;19;20015;-46
2023/03/04 03:06:39;;;;;;;11.05;8.52;;;;;;;0.42;100.00;98736.94;15295855;19;20121;-48
2023/03/04 03:12:04;;;;;;;;;;;;;;;0.40;100.00;98728.25;15298696;19;20078;-43
2023/03/04 03:17:32;;;;;;;13.40;9.00;;;;;;;0.41;100.00;98728.16;15301854;19;19939;-47
2023/03/04 03:22:58;;;;;;;12.35;7.93;;;;;;;0.47;100.00;98720.81;15282620;19;20015;-46
2023/03/04 03:28:22;;;;;;;10.15;7.60;;;;;;;0.52;100.00;98716.06;15294909;19;20018;-45
2023/03/04 03:33:49;;;;;;;9.15;7.00;;;;;;;0.52;100.00;98695.72;15290564;19;20014;-52
2023/03/04 03:39:14;;;;;;;12.10;7.63;;;;;;;0.56;100.00;98701.69;15299345;19;20102;-46
2023/03/04 03:44:39;;;;;;;10.52;6.57;;;;;;;0.57;100.00;98696.28;15290517;19;20035;-47
2023/03/04 03:50:06;;;;;;;9.93;6.82;;;;;;;0.58;100.00;98698.00;15298324;19;20019;-49
2023/03/04 03:55:31;;;;;;;13.65;6.95;;;;;;;0.64;100.00;98693.28;15287634;19;20035;-47
2023/03/04 04:00:55;;;;;;;10.68;6.20;;;;;;;0.64;100.00;98696.78;15293591;19;20015;-45
2023/03/04 04:06:29;;;;;;;11.13;6.55;;;;;;;0.65;100.00;98695.00;15278790;19;20024;-46
2023/03/04 04:11:54;;;;;;;11.40;6.20;;;;;;;0.68;100.00;98694.78;15290445;19;20024;-45
2023/03/04 04:17:19;;;;;;;10.15;6.00;;;;;;;0.68;100.00;98700.97;15291802;19;20078;-46
2023/03/04 04:22:46;;;;;;;10.95;6.32;;;;;;;0.64;100.00;98702.06;15289756;19;20102;-45
2023/03/04 04:28:11;;;;;;;11.38;6.22;;;;;;;0.64;100.00;98711.84;15288048;19;20465;-45
2023/03/04 04:33:37;;;;;;;11.80;6.45;;;;;;;0.60;100.00;98719.97;15290640;19;20063;-45
2023/03/04 04:39:04;;;;;;;10.05;6.10;;;;;;;0.63;100.00;98724.22;15291246;19;20067;-46
2023/03/04 04:44:29;;;;;;;11.93;6.03;;;;;;;0.63;100.00;98726.88;15285793;19;20021;-47
2023/03/04 04:49:53;;;;;;;11.40;6.32;;;;;;;0.65;100.00;98724.16;15290712;19;20021;-45
2023/03/04 04:55:21;;;;;;;10.68;5.55;;;;;;;0.67;100.00;98716.94;15286492;19;20018;-46
2023/03/04 05:00:45;;;;;;;10.43;5.85;;;;;;;0.69;100.00;98723.00;15279649;19;20384;-45
2023/03/04 05:06:19;;;;;;;11.55;5.82;;;;;;;0.70;100.00;98735.34;15286433;19;20074;-48
2023/03/04 05:11:46;;;;;;;10.82;5.35;;;;;;;0.69;100.00;98736.28;15288029;19;20058;-46
2023/03/04 05:17:11;;;;;;;14.00;6.20;;;;;;;0.69;100.00;98733.63;14778143;19;10001064;-45
2023/03/04 05:22:36;;;;;;;13.35;5.82;;;;;;;0.70;100.00;98722.06;15286343;19;20019;-46
2023/03/04 05:28:03;;;;;;;11.95;5.88;;;;;;;0.69;100.00;98723.00;15286090;19;20368;-46
2023/03/04 05:33:29;;;;;;;13.75;5.95;;;;;;;0.72;100.00;98728.97;15281298;19;20093;-45
2023/03/04 05:38:53;;;;;;;13.57;5.72;;;;;;;0.72;100.00;98718.38;15289217;19;20006;-46
2023/03/04 05:44:21;;;;;;;13.68;5.68;;;;;;;0.71;100.00;98714.00;15284108;19;20098;-46
2023/03/04 05:49:46;;;;;;;11.77;5.68;;;;;;;0.69;100.00;98720.38;15286119;19;20014;-45
2023/03/04 05:55:11;;;;;;;13.80;5.60;;;;;;;0.71;100.00;98721.13;15284063;19;20022;-46
2023/03/04 06:00:39;;;;;;;12.48;5.65;;;;;;;0.71;100.00;98716.66;15286191;19;20027;-45
2023/03/04 06:06:04;;;;;;;12.40;4.70;;;;;;;0.75;100.00;98712.91;15275751;19;20098;-47
2023/03/04 06:11:28;;;;;;;10.98;5.05;;;;;;;0.76;100.00;98713.75;15285307;19;20021;-47
2023/03/04 06:16:55;;;;;;;13.20;5.03;;;;;;;0.79;100.00;98715.38;15283214;19;20086;-45
2023/03/04 06:22:20;;;;;;;14.68;4.75;;;;;;;0.81;100.00;98711.69;15282295;19;20753;-45
2023/03/04 06:27:45;;;;;;;12.00;5.40;;;;;;;0.83;100.00;98709.78;15283259;19;20011;-46
2023/03/04 06:33:14;;;;;;;15.80;5.15;;;;;;;0.85;100.00;98715.00;15281160;19;20477;-46
2023/03/04 06:38:39;;;;;;;12.95;5.07;;;;;;;0.89;100.00;98712.06;15279855;19;20024;-46
2023/03/04 06:44:04;;;;;;;15.98;5.15;;;;;;;0.95;100.00;98723.25;15279499;19;20029;-48
2023/03/04 06:49:31;;;;;;;13.90;5.28;;;;;;;1.00;100.00;98729.16;15283358;19;20018;-48
2023/03/04 06:54:56;;;;;;;13.77;4.70;;;;;;;1.01;100.00;98717.56;15279957;19;20099;-45
2023/03/04 07:00:22;;;;;;;13.18;4.85;;;;;;;1.04;100.00;98728.00;15286343;19;20014;-48
2023/03/04 07:05:57;;;;;;;14.93;4.57;;;;;;;1.10;100.00;98732.94;15291502;19;20020;-46
2023/03/04 07:11:22;;;;;;;12.73;4.13;;;;;;;1.14;100.00;98728.28;15293067;19;20035;-46
2023/03/04 07:16:48;;;;;;;13.68;4.05;;;;;;;1.18;100.00;98725.34;15293071;19;20481;-45
2023/03/04 07:22:15;;;;;;;10.25;4.00;;;;;;;1.23;100.00;98727.72;15295920;19;20015;-46
2023/03/04 07:27:41;;;;;;;14.10;4.32;;;;;;;1.28;100.00;98732.75;15292005;19;20581;-45
2023/03/04 07:33:06;;;;;;;13.05;4.10;;;;;;;1.32;100.00;98726.31;15292201;19;20014;-46
2023/03/04 07:38:33;;;;;;;11.95;3.75;;;;;;;1.38;100.00;98734.75;15295413;19;20020;-46
2023/03/04 07:43:59;;;;;;;17.30;6.20;;;;;;;1.45;100.00;98739.66;15287383;19;20378;-47
2023/03/04 07:49:23;;;;;;;11.75;3.67;;;;;;;1.50;100.00;98730.47;15295461;19;20010;-46
2023/03/04 07:54:50;;;;;;;14.95;6.43;;;;;;;1.56;100.00;98723.91;15292092;19;20021;-45
2023/03/04 08:00:18;;;;;;;11.32;4.07;;;;;;;1.63;100.00;98727.91;15297021;19;20596;-49
2023/03/04 08:05:49;;;;;;;14.23;3.90;;;;;;;1.68;100.00;98730.25;15290858;19;20018;-45
2023/03/04 08:11:19;;;;;;;11.23;3.08;;;;;;;1.76;100.00;98720.00;15291732;19;20465;-50
2023/03/04 08:16:43;;;;;;;11.30;3.13;;;;;;;1.84;100.00;98716.84;15284892;19;20010;-46
2023/03/04 08:22:08;;;;;;;8.18;2.80;;;;;;;1.92;100.00;98714.53;15293203;19;20033;-45
2023/03/04 08:27:36;;;;;;;8.82;2.40;;;;;;;1.97;100.00;98707.13;15290776;19;20343;-49
2023/03/04 08:33:01;;;;;;;11.00;3.45;;;;;;;2.06;100.00;98704.81;15292665;19;20024;-47
2023/03/04 08:38:25;;;;;;;11.38;2.97;;;;;;;2.14;100.00;98706.03;15291292;19;20027;-48
2023/03/04 08:43:52;;;;;;;9.27;2.47;;;;;;;2.25;100.00;98699.16;15249670;19;20368;-48
2023/03/04 08:49:19;;;;;;;8.52;2.33;;;;;;;2.34;100.00;98695.03;15286119;19;20027;-47
2023/03/04 08:54:44;;;;;;;8.15;2.38;;;;;;;2.43;100.00;98694.41;15286555;19;20422;-45
2023/03/04 09:00:12;;;;;;;8.93;2.10;;;;;;;2.49;100.00;98685.16;15290428;19;20486;-45
2023/03/04 09:05:37;;;;;;;5.72;2.10;;;;;;;2.59;100.00;98691.56;15287354;19;20455;-45
2023/03/04 09:11:03;;;;;;;6.50;1.98;;;;;;;2.66;100.00;98689.34;15291910;19;20018;-45
2023/03/04 09:16:30;;;;;;;7.72;2.10;;;;;;;2.76;100.00;98688.59;15288036;19;20014;-46
2023/03/04 09:21:56;;;;;;;7.63;2.10;;;;;;;2.89;100.00;98674.44;15284688;19;20122;-45
2023/03/04 09:27:21;;;;;;;8.05;2.20;;;;;;;2.97;100.00;98679.25;15285484;19;20014;-45
2023/03/04 09:32:48;;;;;;;6.45;2.17;;;;;;;2.96;100.00;98677.53;15289456;19;20086;-47
2023/03/04 09:38:13;;;;;;;6.50;1.90;;;;;;;3.02;100.00;98675.28;15291746;19;20009;-45
2023/03/04 09:43:38;;;;;;;6.43;1.88;;;;;;;3.15;100.00;98682.44;15289054;19;20022;-45
2023/03/04 09:49:06;;;;;;;5.97;1.80;;;;;;;3.28;100.00;98682.44;15289615;19;20023;-45
2023/03/04 09:54:53;;;;;;;5.40;1.42;;;;;;;3.35;100.00;98671.22;15283748;19;20017;-47
2023/03/04 10:00:23;;;;;;;5.00;1.50;;;;;;;3.46;100.00;98650.97;15289528;19;20021;-48
2023/03/04 10:06:03;;;;;;;3.67;1.20;;;;;;;3.49;100.00;98637.41;15284475;19;20022;-47
2023/03/04 10:11:32;;;;;;;3.20;1.10;;;;;;;3.52;100.00;98658.50;15286892;19;20025;-47
2023/03/04 10:17:00;;;;;;;3.55;1.20;;;;;;;3.72;100.00;98643.75;15284506;19;20101;-46
2023/03/04 10:22:33;;;;;;;2.78;1.10;;;;;;;3.63;100.00;98647.94;15277708;19;20010;-47
2023/03/04 10:28:01;;;;;;;3.33;1.15;;;;;;;3.72;100.00;98646.41;15282392;19;20018;-46
2023/03/04 10:33:29;;;;;;;2.67;1.00;;;;;;;3.76;100.00;98655.03;15285028;19;20027;-45
2023/03/04 10:38:57;;;;;;;3.13;0.95;;;;;;;3.80;100.00;98640.53;15298561;19;20014;-46
2023/03/04 10:44:22;;;;;;;3.63;1.08;;;;;;;3.87;100.00;98641.75;15294155;19;20021;-45
2023/03/04 10:49:59;;;;;;;3.78;1.00;;;;;;;3.94;100.00;98637.66;15299118;19;20038;-45
2023/03/04 10:55:30;;;;;;;2.53;0.82;;;;;;;3.97;100.00;98621.44;15287752;19;20014;-48
2023/03/04 11:01:07;;;;;;;1.60;0.83;;;;;;;3.97;100.00;98647.28;15299432;19;20010;-46
2023/03/04 11:06:32;;;;;;;2.78;0.80;;;;;;;4.00;100.00;98647.88;15267071;19;20030;-46
2023/03/04 11:12:00;;;;;;;1.77;1.20;;;;;;;3.98;100.00;98615.16;15291342;19;20031;-48
2023/03/04 11:17:28;;;;;;;3.17;1.00;;;;;;;3.99;100.00;98608.03;15288793;19;20344;-46
2023/03/04 11:22:54;;;;;;;3.28;1.00;;;;;;;3.99;100.00;98606.19;15291006;19;20017;-47
2023/03/04 11:28:27;;;;;;;2.08;0.75;;;;;;;3.98;100.00;98622.31;15289152;19;20435;-47
2023/03/04 11:33:59;;;;;;;2.47;0.80;;;;;;;3.99;100.00;98608.88;15294815;19;20411;-46
2023/03/04 11:39:32;;;;;;;3.53;0.82;;;;;;;4.04;100.00;98599.69;15297449;19;20098;-48
2023/03/04 11:45:00;;;;;;;2.15;0.98;;;;;;;4.07;100.00;98610.97;15290953;19;20026;-46
2023/03/04 11:50:51;;;;;;;2.03;0.80;;;;;;;4.08;100.00;98603.78;15292726;19;20049;-46
2023/03/04 11:56:38;;;;;;;1.85;0.90;;;;;;;4.19;100.00;98593.16;15285582;19;20596;-45
2023/03/04 12:02:21;;;;;;;2.65;0.70;;;;;;;4.24;100.00;98579.47;15285218;19;20021;-46
2023/03/04 12:08:33;;;;;;;2.58;0.70;;;;;;;4.21;100.00;98585.91;15289114;19;20025;-46
2023/03/04 12:14:10;;;;;;;;;;;;;;;4.18;100.00;98572.78;15293275;19;20016;-46
2023/03/04 12:19:56;;;;;;;2.45;0.80;;;;;;;4.29;100.00;98567.50;15296004;19;20270;-49
2023/03/04 12:25:41;;;;;;;4.05;1.00;;;;;;;4.35;100.00;98560.84;15285665;19;20031;-45
2023/03/04 12:31:33;;;;;;;3.85;0.77;;;;;;;4.31;100.00;98551.38;15293003;19;20066;-47
2023/03/04 12:37:06;;;;;;;;;;;;;;;4.24;100.00;98547.47;15291994;19;20020;-45
2023/03/04 12:42:44;;;;;;;3.00;0.80;;;;;;;4.28;100.00;98552.50;15289998;19;19919;-45
2023/03/04 12:48:21;;;;;;;1.65;0.80;;;;;;;4.26;100.00;98556.22;15286610;19;20013;-47
2023/03/04 12:53:59;;;;;;;1.85;0.80;;;;;;;4.21;100.00;98555.75;15286425;19;20014;-49
2023/03/04 12:59:28;;;;;;;1.40;0.70;;;;;;;4.22;100.00;98550.28;15288836;19;20022;-45
2023/03/04 13:05:05;;;;;;;1.92;0.73;;;;;;;4.24;100.00;98552.81;15283992;19;20022;-45
2023/03/04 13:10:33;;;;;;;1.15;0.70;;;;;;;4.30;100.00;98537.19;15290500;19;20074;-45
2023/03/04 13:16:10;;;;;;;2.28;0.90;;;;;;;4.38;100.00;98531.25;15287445;19;20085;-45
2023/03/04 13:21:48;;;;;;;1.88;0.80;;;;;;;4.44;100.00;98522.81;15284927;19;20019;-46
2023/03/04 13:27:54;;;;;;;2.08;0.65;;;;;;;4.54;100.00;98522.91;15280330;19;20018;-47
2023/03/04 13:34:00;;;;;;;3.35;0.70;;;;;;;4.56;100.00;98509.47;15288044;19;20475;-47
2023/03/04 13:39:42;;;;;;;2.17;0.50;;;;;;;4.59;100.00;98519.88;15282792;19;20014;-49
2023/03/04 13:45:31;;;;;;;1.43;0.90;;;;;;;4.55;100.00;98505.94;15286258;19;20022;-46
2023/03/04 13:50:57;;;;;;;1.15;0.60;;;;;;;4.57;100.00;98506.66;15287082;19;20623;-47
2023/03/04 13:56:34;;;;;;;4.03;0.77;;;;;;;4.50;100.00;98508.13;15285019;19;20018;-45
2023/03/04 14:02:07;;;;;;;1.45;0.68;;;;;;;4.51;100.00;98496.50;15286449;19;20017;-47
2023/03/04 14:07:35;;;;;;;1.40;0.60;;;;;;;4.44;100.00;98500.59;15282166;19;20022;-46
2023/03/04 14:13:05;;;;;;;1.10;0.63;;;;;;;4.41;100.00;98507.03;15281658;19;20020;-45
2023/03/04 14:18:30;;;;;;;1.35;0.70;;;;;;;4.42;100.00;98491.84;15289319;19;20012;-46
2023/03/04 14:23:54;;;;;;;1.05;0.77;;;;;;;4.43;100.00;98483.75;15284526;19;20026;-44
2023/03/04 14:29:28;;;;;;;3.30;0.90;;;;;;;4.37;100.00;98494.06;15287461;19;20082;-45
2023/03/04 14:34:58;;;;;;;2.30;0.90;;;;;;;4.13;100.00;98503.00;15282313;19;20022;-45
2023/03/04 14:40:27;;;;;;;1.60;0.88;;;;;;;4.06;100.00;98496.44;15285974;19;20014;-45
2023/03/04 14:45:58;;;;;;;1.83;0.90;;;;;;;4.00;100.00;98498.59;15279588;19;20018;-46
2023/03/04 14:51:40;;;;;;;1.87;0.80;;;;;;;4.02;100.00;98479.81;15285595;19;20468;-45
2023/03/04 14:57:05;;;;;;;3.83;1.40;;;;;;;4.06;100.00;98473.28;15280825;19;20418;-46
2023/03/04 15:02:40;;;;;;;1.60;0.90;;;;;;;4.12;100.00;98474.63;15283786;19;20017;-48
2023/03/04 15:08:24;;;;;;;2.10;0.98;;;;;;;4.16;100.00;98481.44;15278740;19;20090;-47
2023/03/04 15:13:52;;;;;;;1.20;0.70;;;;;;;4.21;100.00;98463.25;15275844;19;20074;-46
2023/03/04 15:19:33;;;;;;;1.20;0.90;;;;;;;4.24;100.00;98467.47;15284610;19;20033;-46
2023/03/04 15:24:58;;;;;;;1.30;0.83;;;;;;;4.18;100.00;98495.47;15290183;19;20010;-46
2023/03/04 15:30:26;;;;;;;1.70;1.10;;;;;;;3.80;100.00;98486.78;15297024;19;20011;-46
2023/03/04 15:35:59;;;;;;;1.40;1.10;;;;;;;3.75;100.00;98498.75;15292873;19;20589;-45
2023/03/04 15:41:28;;;;;;;2.42;1.05;;;;;;;3.69;100.00;98490.28;15296599;19;20439;-46
2023/03/04 15:46:53;;;;;;;1.33;0.90;;;;;;;3.64;100.00;98496.94;15287064;19;20338;-50
2023/03/04 15:52:25;;;;;;;2.17;1.10;;;;;;;3.62;100.00;98507.69;15295202;19;20021;-47
2023/03/04 15:57:55;;;;;;;1.73;0.85;;;;;;;3.64;100.00;98499.59;15291033;19;20126;-47
2023/03/04 16:03:23;;;;;;;1.00;0.90;;;;;;;3.66;100.00;98500.31;15294417;19;20066;-45
2023/03/04 16:08:58;;;;;;;2.92;1.20;;;;;;;3.63;100.00;98497.88;15279356;19;20045;-46
2023/03/04 16:14:27;;;;;;;1.83;0.90;;;;;;;3.57;100.00;98496.53;15295355;19;20018;-47
2023/03/04 16:19:51;;;;;;;1.38;0.90;;;;;;;3.59;100.00;98489.25;15292953;19;20014;-48
2023/03/04 16:25:20;;;;;;;1.80;1.00;;;;;;;3.52;100.00;98490.69;15293640;19;20025;-47
2023/03/04 16:30:44;;;;;;;1.75;0.90;;;;;;;3.52;100.00;98480.91;15295959;19;20542;-47
2023/03/04 16:36:15;;;;;;;1.98;0.90;;;;;;;3.50;100.00;98477.50;15291959;19;20023;-47
2023/03/04 16:41:43;;;;;;;2.50;1.17;;;;;;;3.49;100.00;98493.56;15294041;19;20035;-47
2023/03/04 16:47:08;;;;;;;2.33;1.10;;;;;;;3.50;100.00;98481.97;15290753;19;20419;-48
2023/03/04 16:52:35;;;;;;;1.10;0.88;;;;;;;3.47;100.00;98484.88;15289523;19;20086;-47
2023/03/04 16:58:03;;;;;;;0.73;0.60;;;;;;;3.32;100.00;98482.38;15286465;19;20035;-46
2023/03/04 17:03:27;;;;;;;1.35;0.60;;;;;;;3.25;100.00;98486.44;15286681;19;20018;-47
2023/03/04 17:08:58;;;;;;;0.82;0.50;;;;;;;3.22;100.00;98482.22;15289986;19;20022;-48
2023/03/04 17:14:32;;;;;;;0.87;0.63;;;;;;;3.18;100.00;98488.69;15290330;19;20038;-47
2023/03/04 17:19:57;;;;;;;0.82;0.65;;;;;;;3.16;100.00;98488.00;15292975;19;20272;-48
2023/03/04 17:25:26;;;;;;;1.35;0.77;;;;;;;3.18;100.00;98493.19;15281264;19;20082;-45
2023/03/04 17:30:54;;;;;;;1.52;0.80;;;;;;;3.13;100.00;98506.84;15281252;19;20029;-49
2023/03/04 17:36:21;;;;;;;2.53;0.90;;;;;;;3.11;100.00;98515.91;15287693;19;20034;-47
2023/03/04 17:41:46;;;;;;;2.75;1.20;;;;;;;3.07;100.00;98515.25;15285790;19;20010;-46
2023/03/04 17:47:14;;;;;;;2.40;1.00;;;;;;;3.05;100.00;98518.03;15281044;19;20512;-49
2023/03/04 17:52:39;;;;;;;2.10;0.98;;;;;;;3.04;100.00;98513.69;15283766;19;20013;-50
2023/03/04 17:58:03;;;;;;;2.65;1.00;;;;;;;3.05;100.00;98504.75;15277052;19;20010;-47
2023/03/04 18:03:31;;;;;;;2.83;1.00;;;;;;;3.10;100.00;98507.06;15285513;19;20019;-46
2023/03/04 18:09:03;;;;;;;3.13;1.20;;;;;;;3.10;100.00;98504.41;15281110;19;20086;-48
2023/03/04 18:14:28;;;;;;;1.48;1.08;;;;;;;3.07;100.00;98507.28;15282377;19;20018;-47
2023/03/04 18:19:55;;;;;;;1.27;1.10;;;;;;;3.10;100.00;98503.56;15283688;19;20337;-48
2023/03/04 18:25:20;;;;;;;2.50;1.20;;;;;;;3.09;100.00;98497.38;15281679;19;20018;-48
2023/03/04 18:30:46;;;;;;;4.03;1.40;;;;;;;3.06;100.00;98498.47;15281906;19;20028;-48
2023/03/04 18:36:14;;;;;;;2.88;1.50;;;;;;;3.04;100.00;98492.38;15279824;19;20365;-48
2023/03/04 18:41:38;;;;;;;2.78;1.60;;;;;;;3.02;100.00;98496.97;15280780;19;20933;-47
2023/03/04 18:47:06;;;;;;;2.50;1.40;;;;;;;2.99;100.00;98497.22;15282472;19;20371;-47
2023/03/04 18:52:34;;;;;;;2.50;1.50;;;;;;;2.95;100.00;98502.84;15283768;19;20440;-49
2023/03/04 18:58:01;;;;;;;3.65;1.80;;;;;;;2.92;100.00;98512.78;15287276;19;20032;-47
2023/03/04 19:03:25;;;;;;;3.00;1.60;;;;;;;2.92;100.00;98517.22;15286139;19;20017;-47
2023/03/04 19:08:54;;;;;;;3.05;1.45;;;;;;;2.87;100.00;98519.38;15288895;19;20811;-49
2023/03/04 19:14:18;;;;;;;4.50;1.70;;;;;;;2.85;100.00;98519.47;15298119;19;20017;-47
2023/03/04 19:19:43;;;;;;;3.65;1.50;;;;;;;2.83;100.00;98509.91;15296763;19;20017;-47
2023/03/04 19:25:10;;;;;;;5.28;1.40;;;;;;;2.81;100.00;98511.81;15294559;19;20010;-45
2023/03/04 19:30:37;;;;;;;3.80;1.50;;;;;;;2.78;100.00;98511.09;15297181;19;20657;-47
2023/03/04 19:36:01;;;;;;;4.45;1.60;;;;;;;2.76;100.00;98512.16;15291188;19;20090;-45
2023/03/04 19:41:30;;;;;;;5.20;1.40;;;;;;;2.74;100.00;98514.06;15299100;19;20089;-49
2023/03/04 19:46:54;;;;;;;3.60;1.60;;;;;;;2.71;100.00;98509.84;15293955;19;20089;-49
2023/03/04 19:52:21;;;;;;;5.65;1.60;;;;;;;2.69;100.00;98495.78;15299172;19;20011;-46
2023/03/04 19:57:49;;;;;;;4.22;1.55;;;;;;;2.71;100.00;98487.69;15289037;19;20025;-47
2023/03/04 20:03:15;;;;;;;3.88;1.33;;;;;;;2.76;100.00;98491.72;15290959;19;20633;-46
2023/03/04 20:08:39;;;;;;;6.75;1.83;;;;;;;2.69;100.00;98486.97;15285608;19;20098;-47
2023/03/04 20:14:07;;;;;;;4.43;1.55;;;;;;;2.61;100.00;98490.16;15292849;19;20496;-46
2023/03/04 20:19:31;;;;;;;4.32;1.60;;;;;;;2.59;100.00;98494.75;15297257;19;20011;-46
2023/03/04 20:25:03;;;;;;;5.47;1.70;;;;;;;2.51;100.00;98495.28;15288560;19;20363;-49
2023/03/04 20:30:31;;;;;;;4.45;1.80;;;;;;;2.50;100.00;98500.72;15288904;19;20082;-48
2023/03/04 20:35:55;;;;;;;4.78;1.45;;;;;;;2.49;100.00;98499.84;15287077;19;20010;-46
2023/03/04 20:41:20;;;;;;;5.55;1.60;;;;;;;2.44;100.00;98502.84;15294126;19;20011;-48
2023/03/04 20:46:49;;;;;;;6.10;1.80;;;;;;;2.42;100.00;98507.41;15290985;19;20014;-46
2023/03/04 20:52:14;;;;;;;6.55;1.80;;;;;;;2.41;100.00;98499.56;15292567;19;20010;-47
2023/03/04 20:57:41;;;;;;;5.45;2.00;;;;;;;2.38;100.00;98508.59;15286562;19;20634;-46
2023/03/04 21:03:09;;;;;;;4.97;1.70;;;;;;;2.35;100.00;98514.13;15288942;19;20043;-46
2023/03/04 21:08:40;;;;;;;6.80;1.70;;;;;;;2.30;100.00;98517.09;15282349;19;20074;-46
2023/03/04 21:14:05;;;;;;;6.50;1.93;;;;;;;2.26;100.00;98514.78;15286912;19;20375;-49
2023/03/04 21:19:35;;;;;;;6.80;1.90;;;;;;;2.20;100.00;98512.53;15291710;19;20293;-45
2023/03/04 21:25:00;;;;;;;5.47;1.73;;;;;;;2.15;100.00;98507.53;15288642;19;20031;-46
2023/03/04 21:30:25;;;;;;;6.53;1.90;;;;;;;2.09;100.00;98503.47;15287666;19;20025;-47
2023/03/04 21:35:53;;;;;;;7.28;1.88;;;;;;;2.07;100.00;98504.56;15289582;19;20372;-47
2023/03/04 21:41:20;;;;;;;5.45;1.80;;;;;;;2.04;100.00;98505.63;15285068;19;20070;-46
2023/03/04 21:46:45;;;;;;;6.90;1.85;;;;;;;2.08;100.00;98509.75;15284881;19;20098;-48
2023/03/04 21:52:12;;;;;;;7.85;1.88;;;;;;;2.15;100.00;98504.88;15288513;19;20633;-48
2023/03/04 21:57:37;;;;;;;6.72;1.90;;;;;;;2.11;100.00;98506.88;15286810;19;20693;-47
2023/03/04 22:03:01;;;;;;;7.28;1.80;;;;;;;2.10;100.00;98499.03;15288568;19;20018;-46
2023/03/04 22:08:35;;;;;;;7.55;2.10;;;;;;;2.13;100.00;98491.69;15288868;19;20025;-81
2023/03/04 22:14:02;;;;;;;7.68;1.88;;;;;;;2.04;100.00;98488.81;15292762;19;20009;-82
2023/03/04 22:19:26;;;;;;;7.32;1.83;;;;;;;2.08;100.00;98485.84;15306464;19;20011;-84
2023/03/04 22:24:59;;;;;;;4.72;1.88;;;;;;;2.05;100.00;98475.44;15345542;19;20010;-84
2023/03/04 22:30:24;;;;;;;5.47;1.63;;;;;;;2.00;100.00;98466.91;15315227;19;20130;-80
2023/03/04 22:35:50;;;;;;;3.83;1.40;;;;;;;1.94;100.00;98472.66;15308715;19;20022;-82
2023/03/04 22:41:23;;;;;;;3.92;1.20;;;;;;;1.95;100.00;98453.09;15313440;19;20019;-82
2023/03/04 22:46:48;;;;;;;2.63;1.00;;;;;;;1.96;100.00;98450.34;15309930;19;20010;-82
2023/03/04 22:52:12;;;;;;;4.40;1.10;;;;;;;1.96;100.00;98444.16;15316800;19;20018;-82
2023/03/04 22:57:44;;;;;;;3.50;1.25;;;;;;;1.97;100.00;98446.75;15313823;19;20364;-83
2023/03/04 23:03:10;;;;;;;3.17;1.30;;;;;;;1.93;100.00;98447.06;15317051;19;20006;-82
2023/03/04 23:08:43;;;;;;;3.22;1.13;;;;;;;1.79;100.00;98448.84;15312287;19;20022;-82
2023/03/04 23:14:11;;;;;;;3.65;1.02;;;;;;;1.76;100.00;98446.41;15318516;19;20014;-82
2023/03/04 23:19:39;;;;;;;2.90;1.08;;;;;;;1.79;100.00;98461.25;15316167;19;20051;-82
2023/03/04 23:25:04;;;;;;;3.58;1.13;;;;;;;1.74;100.00;98453.63;15317332;19;20022;-83
2023/03/04 23:30:34;;;;;;;3.13;1.10;;;;;;;1.73;100.00;98438.63;15315654;19;20014;-83
2023/03/04 23:35:59;;;;;;;2.83;1.08;;;;;;;1.72;100.00;98426.31;15316176;19;20035;-82
2023/03/04 23:41:26;;;;;;;2.33;1.10;;;;;;;1.80;100.00;98429.31;15319680;19;20014;-83
2023/03/04 23:46:53;;;;;;;2.67;1.10;;;;;;;1.73;100.00;98438.63;15314540;19;20038;-84
2023/03/04 23:52:18;;;;;;;3.10;1.20;;;;;;;1.69;100.00;98439.81;15318060;19;20019;-85
2023/03/04 23:57:45;;;;;;;2.85;1.20;;;;;;;1.64;100.00;98433.94;15320661;19;20046;-84
